sensor_id;sensor_type;location;lat;lon;timestamp;P1;durP1;ratioP1;P2;durP2;ratioP2
73672;SDS011;61972;19.480;-99.240;2023-04-05T00:02:07;7.78;;;5.70;;
73672;SDS011;61972;19.480;-99.240;2023-04-05T00:04:35;8.40;;;5.60;;
73672;SDS011;61972;19.480;-99.240;2023-04-05T00:07:02;8.82;;;5.55;;
73672;SDS011;61972;19.480;-99.240;2023-04-05T00:09:32;8.23;;;5.20;;
73672;SDS011;61972;19.480;-99.240;2023-04-05T00:11:58;6.45;;;5.03;;
73672;SDS011;61972;19.480;-99.240;2023-04-05T00:14:24;7.13;;;5.07;;
73672;SDS011;61972;19.480;-99.240;2023-04-05T00:16:50;7.25;;;4.70;;
73672;SDS011;61972;19.480;-99.240;2023-04-05T00:19:17;7.88;;;5.10;;
73672;SDS011;61972;19.480;-99.240;2023-04-05T00:21:43;8.43;;;4.90;;
73672;SDS011;61972;19.480;-99.240;2023-04-05T00:24:10;7.75;;;4.97;;
73672;SDS011;61972;19.480;-99.240;2023-04-05T00:26:40;11.77;;;5.25;;
73672;SDS011;61972;19.480;-99.240;2023-04-05T00:29:08;5.93;;;4.10;;
73672;SDS011;61972;19.480;-99.240;2023-04-05T00:31:34;7.25;;;4.57;;
73672;SDS011;61972;19.480;-99.240;2023-04-05T00:34:00;6.60;;;4.33;;
73672;SDS011;61972;19.480;-99.240;2023-04-05T00:36:41;6.88;;;4.70;;
73672;SDS011;61972;19.480;-99.240;2023-04-05T00:50:30;8.17;;;5.80;;
73672;SDS011;61972;19.480;-99.240;2023-04-05T00:52:37;9.30;;;6.72;;
73672;SDS011;61972;19.480;-99.240;2023-04-05T00:55:07;11.20;;;7.63;;
73672;SDS011;61972;19.480;-99.240;2023-04-05T00:57:35;14.25;;;8.07;;
73672;SDS011;61972;19.480;-99.240;2023-04-05T01:00:05;12.23;;;7.95;;
73672;SDS011;61972;19.480;-99.240;2023-04-05T01:02:48;12.60;;;8.87;;
73672;SDS011;61972;19.480;-99.240;2023-04-05T01:07:58;14.85;;;9.55;;
73672;SDS011;61972;19.480;-99.240;2023-04-05T01:10:35;13.32;;;9.25;;
73672;SDS011;61972;19.480;-99.240;2023-04-05T01:13:06;13.65;;;9.70;;
73672;SDS011;61972;19.480;-99.240;2023-04-05T01:15:33;13.87;;;9.43;;
73672;SDS011;61972;19.480;-99.240;2023-04-05T01:17:59;16.75;;;11.00;;
73672;SDS011;61972;19.480;-99.240;2023-04-05T01:20:33;16.13;;;10.02;;
73672;SDS011;61972;19.480;-99.240;2023-04-05T01:28:48;17.27;;;11.83;;
73672;SDS011;61972;19.480;-99.240;2023-04-05T01:31:25;17.02;;;10.52;;
73672;SDS011;61972;19.480;-99.240;2023-04-05T01:37:02;17.02;;;10.95;;
73672;SDS011;61972;19.480;-99.240;2023-04-05T01:39:32;17.98;;;11.00;;
73672;SDS011;61972;19.480;-99.240;2023-04-05T01:42:01;16.37;;;11.13;;
73672;SDS011;61972;19.480;-99.240;2023-04-05T01:44:28;18.00;;;11.40;;
73672;SDS011;61972;19.480;-99.240;2023-04-05T01:46:54;15.55;;;11.48;;
73672;SDS011;61972;19.480;-99.240;2023-04-05T01:49:21;15.70;;;11.32;;
73672;SDS011;61972;19.480;-99.240;2023-04-05T01:51:48;15.60;;;10.77;;
73672;SDS011;61972;19.480;-99.240;2023-04-05T01:54:14;18.40;;;11.83;;
73672;SDS011;61972;19.480;-99.240;2023-04-05T01:56:40;15.95;;;10.88;;
73672;SDS011;61972;19.480;-99.240;2023-04-05T01:59:06;15.32;;;11.18;;
73672;SDS011;61972;19.480;-99.240;2023-04-05T02:01:32;17.38;;;11.27;;
73672;SDS011;61972;19.480;-99.240;2023-04-05T02:03:58;20.23;;;10.75;;
73672;SDS011;61972;19.480;-99.240;2023-04-05T02:06:24;17.67;;;10.70;;
73672;SDS011;61972;19.480;-99.240;2023-04-05T02:08:51;15.55;;;10.35;;
73672;SDS011;61972;19.480;-99.240;2023-04-05T02:11:17;14.93;;;10.55;;
73672;SDS011;61972;19.480;-99.240;2023-04-05T02:13:43;13.50;;;10.40;;
73672;SDS011;61972;19.480;-99.240;2023-04-05T02:16:09;15.95;;;10.82;;
73672;SDS011;61972;19.480;-99.240;2023-04-05T02:18:36;17.90;;;11.20;;
73672;SDS011;61972;19.480;-99.240;2023-04-05T02:21:03;16.02;;;11.13;;
73672;SDS011;61972;19.480;-99.240;2023-04-05T02:23:30;17.98;;;11.20;;
73672;SDS011;61972;19.480;-99.240;2023-04-05T02:25:57;16.50;;;11.23;;
73672;SDS011;61972;19.480;-99.240;2023-04-05T02:28:24;19.30;;;11.25;;
73672;SDS011;61972;19.480;-99.240;2023-04-05T02:30:50;15.20;;;10.43;;
73672;SDS011;61972;19.480;-99.240;2023-04-05T02:33:17;16.75;;;12.18;;
73672;SDS011;61972;19.480;-99.240;2023-04-05T02:35:43;19.80;;;12.82;;
73672;SDS011;61972;19.480;-99.240;2023-04-05T02:38:09;22.15;;;12.82;;
73672;SDS011;61972;19.480;-99.240;2023-04-05T02:40:35;20.15;;;13.88;;
73672;SDS011;61972;19.480;-99.240;2023-04-05T02:43:06;19.27;;;12.90;;
73672;SDS011;61972;19.480;-99.240;2023-04-05T02:45:32;17.40;;;12.77;;
73672;SDS011;61972;19.480;-99.240;2023-04-05T02:47:58;20.83;;;13.23;;
73672;SDS011;61972;19.480;-99.240;2023-04-05T02:50:24;22.40;;;13.77;;
73672;SDS011;61972;19.480;-99.240;2023-04-05T02:52:50;18.00;;;12.23;;
73672;SDS011;61972;19.480;-99.240;2023-04-05T02:55:17;20.00;;;13.23;;
73672;SDS011;61972;19.480;-99.240;2023-04-05T02:57:43;18.73;;;12.25;;
73672;SDS011;61972;19.480;-99.240;2023-04-05T03:00:09;17.80;;;12.75;;
73672;SDS011;61972;19.480;-99.240;2023-04-05T03:02:37;18.00;;;12.45;;
73672;SDS011;61972;19.480;-99.240;2023-04-05T03:05:04;18.90;;;11.80;;
73672;SDS011;61972;19.480;-99.240;2023-04-05T03:07:32;15.97;;;11.40;;
73672;SDS011;61972;19.480;-99.240;2023-04-05T03:09:59;18.90;;;11.10;;
73672;SDS011;61972;19.480;-99.240;2023-04-05T03:12:26;17.45;;;11.40;;
73672;SDS011;61972;19.480;-99.240;2023-04-05T03:14:52;21.27;;;11.00;;
73672;SDS011;61972;19.480;-99.240;2023-04-05T03:17:18;15.07;;;10.52;;
73672;SDS011;61972;19.480;-99.240;2023-04-05T03:19:45;15.73;;;10.00;;
73672;SDS011;61972;19.480;-99.240;2023-04-05T03:22:11;16.77;;;10.20;;
73672;SDS011;61972;19.480;-99.240;2023-04-05T03:24:37;14.65;;;9.98;;
73672;SDS011;61972;19.480;-99.240;2023-04-05T03:27:03;14.82;;;9.95;;
73672;SDS011;61972;19.480;-99.240;2023-04-05T03:29:30;12.90;;;10.10;;
73672;SDS011;61972;19.480;-99.240;2023-04-05T03:31:56;15.37;;;9.90;;
73672;SDS011;61972;19.480;-99.240;2023-04-05T03:34:23;12.60;;;9.05;;
73672;SDS011;61972;19.480;-99.240;2023-04-05T03:36:54;12.77;;;8.98;;
73672;SDS011;61972;19.480;-99.240;2023-04-05T03:39:21;15.13;;;9.23;;
73672;SDS011;61972;19.480;-99.240;2023-04-05T03:41:47;14.07;;;9.18;;
73672;SDS011;61972;19.480;-99.240;2023-04-05T03:44:13;15.67;;;8.97;;
73672;SDS011;61972;19.480;-99.240;2023-04-05T03:46:39;14.18;;;9.20;;
73672;SDS011;61972;19.480;-99.240;2023-04-05T03:49:06;13.68;;;9.30;;
73672;SDS011;61972;19.480;-99.240;2023-04-05T03:51:32;13.45;;;9.38;;
73672;SDS011;61972;19.480;-99.240;2023-04-05T03:53:59;15.90;;;10.40;;
73672;SDS011;61972;19.480;-99.240;2023-04-05T03:56:25;16.30;;;10.03;;
73672;SDS011;61972;19.480;-99.240;2023-04-05T03:58:51;16.55;;;9.38;;
73672;SDS011;61972;19.480;-99.240;2023-04-05T04:01:18;13.50;;;9.88;;
73672;SDS011;61972;19.480;-99.240;2023-04-05T04:03:44;15.30;;;10.48;;
73672;SDS011;61972;19.480;-99.240;2023-04-05T04:06:10;17.02;;;10.50;;
73672;SDS011;61972;19.480;-99.240;2023-04-05T04:54:06;13.70;;;9.30;;
73672;SDS011;61972;19.480;-99.240;2023-04-05T04:56:35;12.98;;;9.50;;
73672;SDS011;61972;19.480;-99.240;2023-04-05T04:59:04;14.85;;;10.27;;
73672;SDS011;61972;19.480;-99.240;2023-04-05T05:01:30;17.15;;;9.77;;
73672;SDS011;61972;19.480;-99.240;2023-04-05T05:04:07;15.68;;;9.40;;
73672;SDS011;61972;19.480;-99.240;2023-04-05T05:06:52;14.53;;;9.80;;
73672;SDS011;61972;19.480;-99.240;2023-04-05T05:09:56;13.45;;;9.30;;
73672;SDS011;61972;19.480;-99.240;2023-04-05T05:16:25;14.40;;;9.30;;
73672;SDS011;61972;19.480;-99.240;2023-04-05T05:18:52;17.48;;;10.02;;
73672;SDS011;61972;19.480;-99.240;2023-04-05T05:21:19;16.97;;;9.93;;
73672;SDS011;61972;19.480;-99.240;2023-04-05T05:23:48;15.20;;;10.00;;
73672;SDS011;61972;19.480;-99.240;2023-04-05T05:26:34;13.48;;;9.52;;
73672;SDS011;61972;19.480;-99.240;2023-04-05T05:29:23;14.75;;;9.40;;
73672;SDS011;61972;19.480;-99.240;2023-04-05T05:32:04;13.63;;;9.75;;
73672;SDS011;61972;19.480;-99.240;2023-04-05T05:34:34;15.60;;;9.17;;
73672;SDS011;61972;19.480;-99.240;2023-04-05T05:40:08;14.25;;;9.23;;
73672;SDS011;61972;19.480;-99.240;2023-04-05T05:43:15;13.90;;;8.88;;
73672;SDS011;61972;19.480;-99.240;2023-04-05T05:46:01;12.32;;;8.90;;
73672;SDS011;61972;19.480;-99.240;2023-04-05T05:48:27;13.63;;;9.30;;
73672;SDS011;61972;19.480;-99.240;2023-04-05T05:50:54;14.73;;;9.52;;
73672;SDS011;61972;19.480;-99.240;2023-04-05T05:53:21;13.00;;;8.90;;
73672;SDS011;61972;19.480;-99.240;2023-04-05T05:59:03;16.85;;;9.48;;
73672;SDS011;61972;19.480;-99.240;2023-04-05T06:01:50;15.00;;;9.17;;
73672;SDS011;61972;19.480;-99.240;2023-04-05T06:14:24;16.08;;;8.95;;
73672;SDS011;61972;19.480;-99.240;2023-04-05T06:17:27;16.83;;;8.83;;
73672;SDS011;61972;19.480;-99.240;2023-04-05T06:27:16;12.45;;;8.50;;
73672;SDS011;61972;19.480;-99.240;2023-04-05T18:20:53;22.25;;;16.25;;
